Time;durP1;ratioP1;P1;durP2;ratioP2;P2;SDS_P1;SDS_P2;PMS_P1;PMS_P2;Temp;Humidity;BMP_temperature;BMP_pressure;BME280_temperature;BME280_humidity;BME280_pressure;Samples;Min_cycle;Max_cycle;Signal;HPM_P1;HPM_P2
2021/06/08 00:01:38;;;;;;;18.23;16.33;;;16.80;99.90;;;;;;5016373;28;20514;-77
2021/06/08 00:04:04;;;;;;;21.27;18.97;;;16.90;99.90;;;;;;5016858;28;20526;-77
2021/06/08 00:06:31;;;;;;;22.47;20.07;;;16.90;99.90;;;;;;5017147;28;20558;-78
2021/06/08 00:08:57;;;;;;;23.10;20.73;;;17.00;99.90;;;;;;5016005;28;20478;-76
2021/06/08 00:11:29;;;;;;;29.70;22.77;;;17.10;99.90;;;;;;5019059;28;20486;-76
2021/06/08 00:13:55;;;;;;;29.83;24.07;;;17.10;99.90;;;;;;5022001;28;20479;-77
2021/06/08 00:16:22;;;;;;;36.30;26.73;;;17.20;99.90;;;;;;5021345;28;20472;-76
2021/06/08 00:18:49;;;;;;;32.60;25.27;;;17.20;99.90;;;;;;5024409;28;20458;-75
2021/06/08 00:21:15;;;;;;;33.67;25.90;;;17.20;99.90;;;;;;5025285;28;20458;-76
2021/06/08 00:23:42;;;;;;;43.50;27.87;;;17.20;99.90;;;;;;5017793;28;20876;-76
2021/06/08 00:26:08;;;;;;;34.80;27.50;;;17.20;99.90;;;;;;5018142;28;20459;-76
2021/06/08 00:28:36;;;;;;;34.83;26.70;;;17.20;99.90;;;;;;5017405;28;20473;-76
2021/06/08 00:31:03;;;;;;;33.63;26.23;;;17.20;99.90;;;;;;5016166;28;20462;-76
2021/06/08 00:33:29;;;;;;;36.60;26.33;;;17.20;99.90;;;;;;5018047;28;20537;-77
2021/06/08 00:35:55;;;;;;;35.77;26.70;;;17.20;99.90;;;;;;5018004;28;20501;-77
2021/06/08 00:38:22;;;;;;;33.40;27.50;;;17.20;99.90;;;;;;5029614;28;20462;-77
2021/06/08 00:40:48;;;;;;;33.10;25.70;;;17.20;99.90;;;;;;5036229;28;20435;-76
2021/06/08 00:43:15;;;;;;;34.70;26.20;;;17.20;99.90;;;;;;5037790;28;20490;-76
2021/06/08 00:45:42;;;;;;;30.23;26.37;;;17.20;99.90;;;;;;5036995;28;20446;-76
2021/06/08 00:48:09;;;;;;;30.67;24.93;;;17.10;99.90;;;;;;5037756;28;20554;-77
2021/06/08 00:50:36;;;;;;;34.43;25.70;;;17.10;99.90;;;;;;5035240;28;20454;-76
2021/06/08 00:53:03;;;;;;;29.07;24.00;;;17.10;99.90;;;;;;5032899;28;20493;-75
2021/06/08 00:55:29;;;;;;;31.93;24.10;;;17.10;99.90;;;;;;5031409;28;20497;-75
2021/06/08 00:57:56;;;;;;;32.47;26.47;;;17.20;99.90;;;;;;5027487;28;20501;-75
2021/06/08 01:00:23;;;;;;;32.15;25.02;;;17.10;99.90;;;;;;5015408;28;20465;-76
2021/06/08 01:02:51;;;;;;;29.67;24.70;;;17.10;99.90;;;;;;5017726;28;20235;-76
2021/06/08 01:05:18;;;;;;;35.20;26.30;;;17.00;99.90;;;;;;5021266;28;20216;-75
2021/06/08 01:07:44;;;;;;;29.00;23.17;;;17.00;99.90;;;;;;5017626;28;20541;-79
2021/06/08 01:10:12;;;;;;;27.55;23.42;;;17.00;99.90;;;;;;5015019;28;21053;-76
2021/06/08 01:12:39;;;;;;;27.30;21.90;;;16.90;99.90;;;;;;5016747;28;20573;-77
2021/06/08 01:15:07;;;;;;;27.97;23.40;;;16.90;99.90;;;;;;5014883;28;20497;-76
2021/06/08 01:17:34;;;;;;;27.50;22.93;;;16.90;99.90;;;;;;5013998;28;20464;-75
2021/06/08 01:20:02;;;;;;;26.70;23.52;;;16.80;99.90;;;;;;5014500;28;20486;-75
2021/06/08 01:22:31;;;;;;;26.83;22.20;;;16.80;99.90;;;;;;5013708;28;20223;-76
2021/06/08 01:24:58;;;;;;;27.87;22.90;;;16.70;99.90;;;;;;5014038;28;20451;-75
2021/06/08 01:27:25;;;;;;;26.52;23.02;;;16.70;99.90;;;;;;5014415;28;20849;-76
2021/06/08 01:29:54;;;;;;;27.30;22.42;;;16.70;99.90;;;;;;5014390;28;20208;-75
2021/06/08 01:32:24;;;;;;;25.02;22.33;;;16.70;99.90;;;;;;5013822;28;20250;-75
2021/06/08 01:34:52;;;;;;;24.57;21.87;;;16.70;99.90;;;;;;5013913;28;20621;-75
2021/06/08 01:37:18;;;;;;;24.27;21.63;;;16.70;99.90;;;;;;5013776;28;20490;-76
2021/06/08 01:39:47;;;;;;;28.27;23.73;;;16.80;99.90;;;;;;5013770;28;20542;-77
2021/06/08 01:42:14;;;;;;;27.23;22.67;;;16.80;99.90;;;;;;5013895;28;20463;-75
2021/06/08 01:44:42;;;;;;;26.17;22.10;;;16.80;99.90;;;;;;5013184;28;20486;-77
2021/06/08 01:47:08;;;;;;;28.57;22.37;;;16.90;99.90;;;;;;5013530;28;20461;-75
2021/06/08 01:49:35;;;;;;;27.37;21.33;;;16.80;99.90;;;;;;5013214;28;20473;-76
2021/06/08 01:52:12;;;;;;;27.83;22.30;;;16.90;99.90;;;;;;5013233;28;20533;-76
2021/06/08 01:54:49;;;;;;;27.97;24.53;;;16.90;99.90;;;;;;5012730;28;20875;-76
2021/06/08 01:57:19;;;;;;;28.20;23.67;;;16.90;99.90;;;;;;5014015;28;20541;-75
2021/06/08 02:00:00;;;;;;;34.50;25.97;;;16.90;99.90;;;;;;5013381;28;20509;-75
2021/06/08 02:02:30;;;;;;;33.80;26.07;;;16.90;99.90;;;;;;5013377;28;20882;-76
2021/06/08 02:05:05;;;;;;;31.50;24.90;;;16.90;99.90;;;;;;5020832;28;20478;-77
2021/06/08 02:07:36;;;;;;;33.07;24.67;;;16.90;99.90;;;;;;5021912;28;20466;-77
2021/06/08 02:10:23;;;;;;;28.00;24.90;;;16.90;99.90;;;;;;5013554;28;20981;-76
2021/06/08 02:12:58;;;;;;;28.33;23.20;;;16.90;99.90;;;;;;5013275;28;20482;-77
2021/06/08 02:15:31;;;;;;;29.77;24.27;;;16.90;99.90;;;;;;5013564;28;20879;-76
2021/06/08 02:17:57;;;;;;;31.83;26.07;;;16.90;99.90;;;;;;5013063;28;20552;-76
2021/06/08 02:20:27;;;;;;;29.80;24.60;;;16.80;99.90;;;;;;5013194;28;20557;-77
2021/06/08 02:22:57;;;;;;;28.53;23.13;;;16.80;99.90;;;;;;5012783;28;20632;-76
2021/06/08 02:25:27;;;;;;;25.97;22.07;;;16.90;99.90;;;;;;5013080;28;20545;-76
2021/06/08 02:27:57;;;;;;;26.40;22.53;;;16.90;99.90;;;;;;5013324;28;20494;-77
2021/06/08 02:30:27;;;;;;;25.77;23.00;;;16.90;99.90;;;;;;5013514;28;20447;-76
2021/06/08 02:32:55;;;;;;;26.07;22.17;;;16.90;99.90;;;;;;5012790;28;20570;-77
2021/06/08 02:35:23;;;;;;;27.73;24.00;;;17.00;99.90;;;;;;5013563;28;20498;-76
2021/06/08 02:37:50;;;;;;;29.93;25.20;;;17.00;99.90;;;;;;5013165;28;20515;-76
2021/06/08 02:40:18;;;;;;;32.30;24.80;;;17.00;99.90;;;;;;5013752;28;20458;-77
2021/06/08 02:42:46;;;;;;;29.50;24.57;;;17.10;99.90;;;;;;5016515;28;20485;-76
2021/06/08 02:45:13;;;;;;;26.47;23.00;;;17.10;99.90;;;;;;5016975;28;20800;-76
2021/06/08 02:47:42;;;;;;;27.40;23.50;;;17.10;99.90;;;;;;5018450;28;20508;-76
2021/06/08 02:50:10;;;;;;;30.50;24.63;;;17.10;99.90;;;;;;5018691;28;20502;-76
2021/06/08 02:52:38;;;;;;;26.13;22.90;;;17.10;99.90;;;;;;5028119;28;20454;-75
2021/06/08 02:55:06;;;;;;;29.03;24.20;;;17.00;99.90;;;;;;5040218;28;20454;-75
2021/06/08 02:57:33;;;;;;;28.97;24.27;;;17.00;99.90;;;;;;5031564;28;20485;-77
2021/06/08 03:00:05;;;;;;;34.30;25.93;;;17.00;99.90;;;;;;5024875;28;20442;-76
2021/06/08 03:02:33;;;;;;;25.90;23.00;;;17.00;99.90;;;;;;5037202;28;20482;-78
2021/06/08 03:05:04;;;;;;;29.33;24.57;;;17.00;99.90;;;;;;5029924;28;20478;-76
2021/06/08 03:07:35;;;;;;;31.97;24.90;;;17.00;99.90;;;;;;5039553;28;20462;-76
2021/06/08 03:10:04;;;;;;;27.50;23.60;;;17.00;99.90;;;;;;5037739;28;20482;-77
2021/06/08 03:12:33;;;;;;;29.83;26.43;;;17.00;99.90;;;;;;5020650;28;20705;-77
2021/06/08 03:15:04;;;;;;;26.33;23.53;;;17.10;99.90;;;;;;5016470;28;20938;-76
2021/06/08 03:17:32;;;;;;;25.77;23.07;;;17.10;99.90;;;;;;5017644;28;20462;-77
2021/06/08 03:20:09;;;;;;;28.93;24.27;;;17.00;99.90;;;;;;5021822;28;20450;-75
2021/06/08 03:22:36;;;;;;;27.27;23.47;;;17.00;99.90;;;;;;5017181;28;20486;-76
2021/06/08 03:25:04;;;;;;;27.13;23.67;;;17.00;99.90;;;;;;5016179;28;20518;-77
2021/06/08 03:27:31;;;;;;;29.60;25.20;;;16.90;99.90;;;;;;5016883;28;20990;-77
2021/06/08 03:29:59;;;;;;;29.13;24.93;;;16.90;99.90;;;;;;5017370;28;20562;-76
2021/06/08 03:34:56;;;;;;;34.30;26.10;;;17.00;99.90;;;;;;5053461;22;20502;-78
2021/06/08 03:37:24;;;;;;;29.97;25.87;;;17.00;99.90;;;;;;5021534;28;20454;-78
2021/06/08 03:39:52;;;;;;;32.80;25.90;;;16.90;99.90;;;;;;5024599;28;20869;-78
2021/06/08 03:42:19;;;;;;;30.23;26.10;;;16.90;99.90;;;;;;5021908;28;20458;-78
2021/06/08 03:44:47;;;;;;;27.87;24.97;;;16.90;99.90;;;;;;5020708;28;20560;-78
2021/06/08 03:47:13;;;;;;;31.30;26.77;;;16.90;99.90;;;;;;5020148;28;20473;-78
2021/06/08 03:49:40;;;;;;;29.63;24.33;;;17.00;99.90;;;;;;5016804;28;20458;-78
2021/06/08 03:52:08;;;;;;;32.20;25.73;;;16.90;99.90;;;;;;5019339;28;20486;-79
2021/06/08 03:54:36;;;;;;;29.40;25.87;;;17.00;99.90;;;;;;5019550;28;20674;-78
2021/06/08 03:57:04;;;;;;;29.13;25.57;;;16.90;99.90;;;;;;5016442;28;20454;-77
2021/06/08 03:59:31;;;;;;;26.97;24.10;;;16.90;99.90;;;;;;5015510;28;20490;-77
2021/06/08 04:01:59;;;;;;;28.43;25.43;;;16.90;99.90;;;;;;5016206;28;20541;-78
2021/06/08 04:04:25;;;;;;;29.63;26.43;;;16.90;99.90;;;;;;5017456;28;20498;-77
2021/06/08 04:06:52;;;;;;;29.50;25.07;;;16.90;99.90;;;;;;5024835;28;20780;-78
2021/06/08 04:09:20;;;;;;;30.20;25.63;;;17.00;99.90;;;;;;5020265;28;20549;-78
2021/06/08 04:11:49;;;;;;;27.43;24.53;;;17.00;99.90;;;;;;5021418;28;20521;-76
2021/06/08 04:14:15;;;;;;;28.57;25.13;;;17.00;99.90;;;;;;5019360;28;20462;-78
2021/06/08 04:16:42;;;;;;;29.80;26.10;;;16.90;99.90;;;;;;5021056;28;20633;-78
2021/06/08 04:19:09;;;;;;;26.83;24.07;;;16.80;99.90;;;;;;5020035;28;20601;-78
2021/06/08 04:21:36;;;;;;;28.37;25.03;;;16.90;99.90;;;;;;5024939;28;20450;-77
2021/06/08 04:24:06;;;;;;;27.97;25.10;;;16.90;99.90;;;;;;5024545;28;20525;-79
2021/06/08 04:26:41;;;;;;;28.80;24.93;;;16.90;99.90;;;;;;5019124;28;20451;-78
2021/06/08 04:29:08;;;;;;;30.03;25.37;;;16.90;99.90;;;;;;5017891;28;20443;-77
2021/06/08 04:31:36;;;;;;;28.83;25.70;;;16.90;99.90;;;;;;5017176;28;20467;-77
2021/06/08 04:34:03;;;;;;;26.97;24.03;;;16.90;99.90;;;;;;5016633;28;20510;-78
2021/06/08 04:36:29;;;;;;;25.93;23.23;;;17.00;99.90;;;;;;5015552;28;20962;-78
2021/06/08 04:38:56;;;;;;;30.30;26.93;;;17.00;99.90;;;;;;5015780;28;20489;-77
2021/06/08 04:41:23;;;;;;;28.20;24.87;;;17.00;99.90;;;;;;5014521;28;20459;-77
2021/06/08 04:43:50;;;;;;;26.00;23.33;;;17.10;99.90;;;;;;5014086;28;20521;-77
2021/06/08 04:46:19;;;;;;;25.20;22.43;;;17.10;99.90;;;;;;5014690;28;20501;-77
2021/06/08 04:48:45;;;;;;;26.70;23.83;;;17.20;99.90;;;;;;5016971;28;20451;-78
2021/06/08 04:51:13;;;;;;;27.10;24.30;;;17.20;99.90;;;;;;5015931;28;20450;-78
2021/06/08 04:53:41;;;;;;;26.90;23.77;;;17.20;99.90;;;;;;5015267;28;20578;-77
2021/06/08 04:56:08;;;;;;;26.27;23.60;;;17.30;99.90;;;;;;5021663;28;20812;-77
2021/06/08 04:58:36;;;;;;;28.43;25.53;;;17.30;99.90;;;;;;5015234;28;20473;-78
2021/06/08 05:01:24;;;;;;;25.50;22.80;;;17.30;99.90;;;;;;5024328;28;20489;-77
2021/06/08 05:03:55;;;;;;;26.57;23.77;;;17.30;99.90;;;;;;5014647;28;20482;-77
2021/06/08 05:06:28;;;;;;;27.00;24.10;;;17.30;99.90;;;;;;5014349;28;20494;-78
2021/06/08 05:08:58;;;;;;;27.03;23.73;;;17.40;99.90;;;;;;5015343;28;20439;-78
2021/06/08 05:11:29;;;;;;;27.70;24.80;;;17.40;99.90;;;;;;5013784;28;20896;-77
2021/06/08 05:13:56;;;;;;;24.00;21.40;;;17.50;99.90;;;;;;5014004;28;20845;-78
2021/06/08 05:16:28;;;;;;;25.90;23.10;;;17.50;99.90;;;;;;5013974;28;20490;-76
2021/06/08 05:18:55;;;;;;;27.30;23.73;;;17.40;99.90;;;;;;5014481;28;20459;-77
2021/06/08 05:21:23;;;;;;;28.03;25.13;;;17.30;99.90;;;;;;5023120;28;20506;-78
2021/06/08 05:23:51;;;;;;;29.83;26.27;;;17.20;99.90;;;;;;5026021;28;20473;-77
2021/06/08 05:26:18;;;;;;;30.57;27.27;;;17.20;99.90;;;;;;5017642;28;20830;-77
2021/06/08 05:28:45;;;;;;;29.30;26.00;;;17.20;99.90;;;;;;5014995;28;20488;-77
2021/06/08 05:31:12;;;;;;;32.70;27.37;;;17.30;99.90;;;;;;5014789;28;20471;-77
2021/06/08 05:33:40;;;;;;;29.27;26.10;;;17.30;99.90;;;;;;5014182;28;20811;-77
2021/06/08 05:36:07;;;;;;;28.33;25.33;;;17.30;99.90;;;;;;5015002;28;20815;-77
2021/06/08 05:38:35;;;;;;;29.93;25.60;;;17.30;99.90;;;;;;5014587;28;20478;-77
2021/06/08 05:41:05;;;;;;;27.47;24.57;;;17.30;99.90;;;;;;5014999;28;20558;-77
2021/06/08 05:43:31;;;;;;;33.23;26.73;;;17.50;99.90;;;;;;5015465;28;20529;-78
2021/06/08 05:45:58;;;;;;;34.17;29.03;;;17.60;99.90;;;;;;5015367;28;20896;-76
2021/06/08 05:48:26;;;;;;;37.87;26.97;;;17.60;99.90;;;;;;5015580;28;20451;-77
2021/06/08 05:50:55;;;;;;;28.70;24.67;;;17.80;99.90;;;;;;5018358;28;20458;-77
2021/06/08 05:53:24;;;;;;;25.00;22.50;;;18.30;99.90;;;;;;5017157;28;20467;-76
2021/06/08 05:55:53;;;;;;;23.90;21.23;;;18.50;98.40;;;;;;5026107;28;20466;-78
2021/06/08 05:58:23;;;;;;;26.30;23.20;;;18.60;95.10;;;;;;5018936;28;20505;-77
2021/06/08 06:00:51;;;;;;;25.43;22.70;;;18.50;94.00;;;;;;5017047;28;20537;-77
2021/06/08 06:03:18;;;;;;;24.67;22.17;;;18.60;94.20;;;;;;5016587;28;20569;-77
2021/06/08 06:05:46;;;;;;;23.30;20.80;;;18.70;94.70;;;;;;5017717;28;20454;-77
2021/06/08 06:08:14;;;;;;;24.83;22.30;;;18.80;94.90;;;;;;5015823;28;20756;-76
2021/06/08 06:10:41;;;;;;;29.30;24.23;;;19.00;92.90;;;;;;5016043;28;20458;-76
2021/06/08 06:13:07;;;;;;;25.13;22.67;;;18.40;94.10;;;;;;5017085;28;20507;-77
2021/06/08 06:15:34;;;;;;;26.00;23.37;;;18.10;95.50;;;;;;5019367;28;20524;-78
2021/06/08 06:18:01;;;;;;;25.43;22.93;;;18.20;95.70;;;;;;5023755;28;20522;-78
2021/06/08 06:20:28;;;;;;;25.50;22.40;;;18.30;96.50;;;;;;5026513;28;20450;-77
2021/06/08 06:22:55;;;;;;;25.47;22.97;;;18.40;96.30;;;;;;5027979;28;21021;-78
2021/06/08 06:25:23;;;;;;;25.27;22.90;;;18.30;96.30;;;;;;5025031;28;20498;-77
2021/06/08 06:27:50;;;;;;;26.10;23.40;;;18.20;96.10;;;;;;5024714;28;20553;-78
2021/06/08 06:30:17;;;;;;;27.80;24.80;;;18.00;96.90;;;;;;5020336;28;20455;-78
2021/06/08 06:32:45;;;;;;;26.80;23.90;;;18.00;97.70;;;;;;5018001;28;20490;-78
2021/06/08 06:35:12;;;;;;;28.93;25.70;;;17.80;99.00;;;;;;5019504;28;20462;-77
2021/06/08 06:37:40;;;;;;;28.07;24.67;;;17.80;99.00;;;;;;5022563;28;20473;-77
2021/06/08 06:40:11;;;;;;;29.70;26.60;;;17.70;99.80;;;;;;5035285;28;20466;-79
2021/06/08 06:42:43;;;;;;;30.73;26.70;;;17.70;99.90;;;;;;5036493;28;20478;-78
2021/06/08 06:45:14;;;;;;;26.83;24.03;;;17.80;99.90;;;;;;5034415;28;20497;-78
2021/06/08 06:47:41;;;;;;;29.20;26.33;;;18.00;99.90;;;;;;5033856;28;20609;-77
2021/06/08 06:50:11;;;;;;;25.83;23.03;;;18.20;99.90;;;;;;5030611;28;20522;-78
2021/06/08 06:52:38;;;;;;;26.97;24.27;;;18.50;98.00;;;;;;5027097;28;20435;-77
2021/06/08 06:55:07;;;;;;;25.50;23.10;;;18.70;97.00;;;;;;5018274;28;20450;-78
2021/06/08 06:57:34;;;;;;;26.63;22.13;;;19.10;94.80;;;;;;5018595;28;20546;-77
2021/06/08 07:00:03;;;;;;;23.30;20.90;;;19.20;92.50;;;;;;5018154;28;20868;-77
2021/06/08 07:02:33;;;;;;;24.90;21.60;;;19.30;91.40;;;;;;5018335;28;20494;-76
2021/06/08 07:05:01;;;;;;;23.37;21.17;;;19.20;91.40;;;;;;5018506;28;20470;-77
2021/06/08 07:07:29;;;;;;;23.67;21.37;;;19.10;91.30;;;;;;5017410;28;20565;-76
2021/06/08 07:09:56;;;;;;;24.73;22.30;;;18.90;92.80;;;;;;5017596;28;20542;-76
2021/06/08 07:12:23;;;;;;;25.40;22.87;;;18.90;92.20;;;;;;5017557;28;20494;-78
2021/06/08 07:14:50;;;;;;;24.70;22.23;;;18.60;94.30;;;;;;5016830;28;20566;-76
2021/06/08 07:17:20;;;;;;;25.13;22.43;;;18.90;94.20;;;;;;5017301;28;20481;-77
2021/06/08 07:19:48;;;;;;;25.27;22.70;;;18.80;94.90;;;;;;5019291;28;20554;-77
2021/06/08 07:22:15;;;;;;;24.27;21.57;;;19.00;93.80;;;;;;5017641;28;20455;-76
2021/06/08 07:24:42;;;;;;;23.33;20.93;;;19.20;92.10;;;;;;5022563;28;20505;-78
2021/06/08 07:27:13;;;;;;;22.70;20.33;;;19.40;91.50;;;;;;5019074;28;20487;-78
2021/06/08 07:29:40;;;;;;;24.03;21.73;;;19.60;90.60;;;;;;5020330;28;20459;-78
2021/06/08 07:32:15;;;;;;;25.17;22.40;;;19.50;91.50;;;;;;5018397;28;21030;-76
2021/06/08 07:34:55;;;;;;;23.80;21.50;;;19.20;91.40;;;;;;5016685;28;20511;-77
2021/06/08 07:37:24;;;;;;;23.20;20.90;;;19.20;92.90;;;;;;5016980;28;20429;-77
2021/06/08 07:39:55;;;;;;;26.10;23.50;;;19.50;92.00;;;;;;5017848;28;20533;-77
2021/06/08 07:42:25;;;;;;;26.63;23.93;;;19.00;92.40;;;;;;5022268;28;20463;-79
2021/06/08 07:44:57;;;;;;;27.07;24.20;;;18.90;93.50;;;;;;5037484;28;20489;-77
2021/06/08 07:47:26;;;;;;;25.83;23.43;;;18.80;94.90;;;;;;5035784;28;20441;-78
2021/06/08 07:49:57;;;;;;;26.57;24.03;;;18.80;96.10;;;;;;5037279;28;20446;-78
2021/06/08 07:52:24;;;;;;;26.87;24.27;;;19.10;95.70;;;;;;5035311;28;20420;-77
2021/06/08 07:54:52;;;;;;;26.30;23.77;;;19.10;94.40;;;;;;5024650;28;20490;-80
2021/06/08 07:57:19;;;;;;;25.13;22.70;;;19.40;93.60;;;;;;5019603;28;20486;-76
2021/06/08 07:59:46;;;;;;;24.80;22.30;;;19.70;91.60;;;;;;5019561;28;20456;-78
2021/06/08 08:02:13;;;;;;;24.87;22.47;;;19.90;90.70;;;;;;5021831;28;20500;-77
2021/06/08 08:04:46;;;;;;;23.93;21.50;;;20.20;87.60;;;;;;5022363;28;20495;-77
2021/06/08 08:07:14;;;;;;;25.47;20.40;;;20.10;87.00;;;;;;5036561;28;20466;-77
2021/06/08 08:09:41;;;;;;;23.13;20.83;;;20.40;85.80;;;;;;5034739;28;20452;-78
2021/06/08 08:12:09;;;;;;;21.60;19.60;;;20.40;85.80;;;;;;5036511;28;20460;-78
2021/06/08 08:14:36;;;;;;;25.17;20.57;;;20.70;81.40;;;;;;5036466;28;20480;-79
2021/06/08 08:17:03;;;;;;;22.87;18.77;;;20.90;77.60;;;;;;5032274;28;20464;-77
2021/06/08 08:19:31;;;;;;;22.33;20.03;;;21.10;77.70;;;;;;5018100;28;20462;-78
2021/06/08 08:21:57;;;;;;;20.13;17.97;;;21.20;77.20;;;;;;5024536;28;20470;-77
2021/06/08 08:24:25;;;;;;;22.13;19.27;;;21.40;74.80;;;;;;5027123;28;20529;-78
2021/06/08 08:26:52;;;;;;;22.00;19.80;;;21.50;73.20;;;;;;5022166;28;20492;-78
2021/06/08 08:29:19;;;;;;;21.83;19.50;;;21.60;72.60;;;;;;5017460;28;20466;-77
2021/06/08 08:31:45;;;;;;;20.00;17.97;;;21.70;73.10;;;;;;5017221;28;20462;-76
2021/06/08 08:34:12;;;;;;;21.20;19.30;;;21.80;72.20;;;;;;5018099;28;20489;-78
2021/06/08 08:36:39;;;;;;;19.50;17.47;;;21.70;72.40;;;;;;5019763;28;20450;-77
2021/06/08 08:39:07;;;;;;;21.33;19.17;;;21.80;72.80;;;;;;5019378;28;20627;-77
2021/06/08 08:41:35;;;;;;;27.93;21.23;;;21.80;72.00;;;;;;5028317;28;20458;-77
2021/06/08 08:44:02;;;;;;;21.43;19.23;;;21.90;71.70;;;;;;5015390;28;20494;-77
2021/06/08 08:46:29;;;;;;;19.97;17.50;;;22.10;69.70;;;;;;5015279;28;20473;-77
2021/06/08 08:48:57;;;;;;;20.23;18.30;;;21.90;72.70;;;;;;5015124;28;20490;-77
2021/06/08 08:51:25;;;;;;;20.40;18.43;;;22.30;69.90;;;;;;5016457;28;20969;-78
2021/06/08 08:53:53;;;;;;;19.70;17.80;;;22.50;70.10;;;;;;5016108;28;20501;-78
2021/06/08 08:56:30;;;;;;;29.73;20.97;;;22.80;67.00;;;;;;5015230;28;20508;-77
2021/06/08 08:59:02;;;;;;;20.80;18.87;;;22.00;69.60;;;;;;5015551;28;20589;-77
2021/06/08 09:01:29;;;;;;;20.07;18.07;;;21.70;70.80;;;;;;5015428;28;20997;-77
2021/06/08 09:03:55;;;;;;;22.30;20.10;;;22.40;69.80;;;;;;5016002;28;20506;-79
2021/06/08 09:06:22;;;;;;;20.17;18.17;;;22.90;65.50;;;;;;5017471;28;20462;-77
2021/06/08 09:08:49;;;;;;;20.30;18.50;;;23.20;64.90;;;;;;5016367;28;20450;-77
2021/06/08 09:11:15;;;;;;;20.90;19.00;;;23.30;62.30;;;;;;5017251;28;20471;-78
2021/06/08 09:13:42;;;;;;;20.40;18.50;;;23.20;63.10;;;;;;5016092;28;20609;-77
2021/06/08 09:16:10;;;;;;;20.83;18.90;;;22.50;66.60;;;;;;5015750;28;20513;-77
2021/06/08 09:18:37;;;;;;;20.47;18.20;;;22.50;67.00;;;;;;5016113;28;20485;-77
2021/06/08 09:21:17;;;;;;;21.30;19.20;;;22.30;66.60;;;;;;5017087;28;20981;-78
2021/06/08 09:23:43;;;;;;;22.43;20.43;;;22.00;68.90;;;;;;5016991;28;20521;-78
2021/06/08 09:26:10;;;;;;;22.17;20.07;;;21.60;70.70;;;;;;5020710;28;20462;-79
2021/06/08 09:28:38;;;;;;;20.60;18.60;;;22.10;69.70;;;;;;5029491;28;20466;-79
2021/06/08 09:31:11;;;;;;;21.97;19.90;;;22.60;66.90;;;;;;5030955;28;20458;-78
2021/06/08 09:33:39;;;;;;;21.90;19.80;;;22.90;64.60;;;;;;5027036;28;20995;-79
2021/06/08 09:36:07;;;;;;;19.37;17.73;;;23.00;63.40;;;;;;5035338;28;20474;-77
2021/06/08 09:38:46;;;;;;;20.67;18.53;;;23.20;61.50;;;;;;5027809;28;20534;-79
2021/06/08 09:41:22;;;;;;;20.00;17.93;;;23.40;61.70;;;;;;5024548;28;20484;-78
2021/06/08 09:43:51;;;;;;;21.00;19.00;;;23.50;61.80;;;;;;5027932;28;20564;-77
2021/06/08 09:46:19;;;;;;;25.20;18.90;;;23.50;61.00;;;;;;5033183;28;20451;-78
2021/06/08 09:48:50;;;;;;;22.20;20.00;;;23.40;61.20;;;;;;5033228;28;20473;-78
2021/06/08 09:51:17;;;;;;;21.47;19.40;;;23.10;61.40;;;;;;5033316;28;20473;-78
2021/06/08 09:53:43;;;;;;;20.13;18.27;;;22.80;61.30;;;;;;5029468;28;20475;-78
2021/06/08 09:56:10;;;;;;;20.40;18.50;;;23.00;61.30;;;;;;5031891;28;20435;-78
2021/06/08 09:58:38;;;;;;;20.07;18.07;;;23.40;59.60;;;;;;5035201;28;20443;-78
2021/06/08 10:01:10;;;;;;;20.47;18.47;;;23.40;59.90;;;;;;5034473;28;20462;-78
2021/06/08 10:03:40;;;;;;;18.67;16.87;;;23.10;61.40;;;;;;5034416;28;20559;-78
2021/06/08 10:06:08;;;;;;;22.40;20.20;;;23.30;61.60;;;;;;5034908;28;20451;-78
2021/06/08 10:08:37;;;;;;;21.90;19.60;;;23.70;60.50;;;;;;5033872;28;20446;-79
2021/06/08 10:11:04;;;;;;;18.30;16.70;;;23.90;58.70;;;;;;5033653;28;20455;-79
2021/06/08 10:13:31;;;;;;;18.23;16.37;;;24.00;58.90;;;;;;5032834;28;20537;-79
2021/06/08 10:15:59;;;;;;;21.63;19.50;;;24.20;59.10;;;;;;5033678;28;20434;-79
2021/06/08 10:18:26;;;;;;;20.87;18.87;;;24.20;56.70;;;;;;5030711;28;20448;-79
2021/06/08 10:20:56;;;;;;;25.17;19.63;;;24.20;56.00;;;;;;5027341;28;20918;-79
2021/06/08 10:23:24;;;;;;;22.17;20.17;;;23.80;55.90;;;;;;5027038;28;20515;-79
2021/06/08 10:25:52;;;;;;;23.87;21.57;;;23.60;57.10;;;;;;5029681;28;20497;-78
2021/06/08 10:28:19;;;;;;;23.03;20.93;;;23.70;57.30;;;;;;5029354;28;20459;-78
2021/06/08 10:30:48;;;;;;;24.23;21.93;;;23.70;56.40;;;;;;5031635;28;20443;-78
2021/06/08 10:33:15;;;;;;;21.70;19.70;;;23.70;55.90;;;;;;5019970;28;20474;-78
2021/06/08 10:35:42;;;;;;;24.47;22.27;;;23.60;57.10;;;;;;5023545;28;20447;-77
2021/06/08 10:38:12;;;;;;;23.93;21.37;;;23.60;57.10;;;;;;5027159;28;20995;-79
2021/06/08 10:40:42;;;;;;;23.07;20.77;;;24.00;56.00;;;;;;5026947;28;20487;-77
2021/06/08 10:43:15;;;;;;;23.07;20.83;;;24.10;54.90;;;;;;5025318;28;20509;-78
2021/06/08 10:45:42;;;;;;;23.87;21.67;;;23.90;55.20;;;;;;5024222;28;20526;-78
2021/06/08 10:48:16;;;;;;;23.67;21.23;;;24.00;55.40;;;;;;5031189;28;20447;-80
2021/06/08 10:50:45;;;;;;;23.73;21.27;;;23.50;57.60;;;;;;5028418;28;20459;-79
2021/06/08 10:53:28;;;;;;;22.97;20.80;;;23.40;58.40;;;;;;5023870;28;20485;-79
2021/06/08 10:55:55;;;;;;;25.57;20.37;;;23.70;57.30;;;;;;5018787;28;20513;-82
2021/06/08 10:58:45;;;;;;;22.83;20.40;;;23.50;60.30;;;;;;5019116;28;20560;-79
2021/06/08 11:01:43;;;;;;;21.20;19.20;;;24.00;57.80;;;;;;5018948;28;20447;-78
2021/06/08 11:04:12;;;;;;;20.73;18.67;;;24.30;56.10;;;;;;5020870;28;20487;-77
2021/06/08 11:06:49;;;;;;;23.63;21.33;;;24.50;55.30;;;;;;5020674;28;20459;-78
2021/06/08 11:09:18;;;;;;;20.77;18.97;;;24.50;54.80;;;;;;5022253;28;20438;-78
2021/06/08 11:11:48;;;;;;;24.00;21.53;;;24.50;55.40;;;;;;5019612;28;20456;-78
2021/06/08 11:14:59;;;;;;;23.07;20.87;;;24.10;56.10;;;;;;5019707;28;20565;-78
2021/06/08 11:17:31;;;;;;;23.77;21.57;;;23.50;59.20;;;;;;5020697;28;20527;-78
2021/06/08 11:19:59;;;;;;;21.13;19.23;;;24.00;56.60;;;;;;5022859;28;20460;-79
2021/06/08 11:22:59;;;;;;;21.63;19.73;;;24.40;55.10;;;;;;5030182;28;20438;-79
2021/06/08 11:25:41;;;;;;;21.13;19.03;;;24.40;54.50;;;;;;5032970;28;20532;-78
2021/06/08 11:28:09;;;;;;;21.33;19.20;;;25.30;52.50;;;;;;5034386;28;20458;-78
2021/06/08 11:30:38;;;;;;;21.53;19.40;;;26.00;50.20;;;;;;5031067;28;20444;-78
2021/06/08 11:33:08;;;;;;;21.37;19.37;;;26.30;48.80;;;;;;5029671;28;20485;-79
2021/06/08 11:35:39;;;;;;;22.27;20.27;;;26.60;48.70;;;;;;5023817;28;20512;-80
2021/06/08 11:38:09;;;;;;;22.97;20.17;;;26.70;48.00;;;;;;5021707;28;20419;-80
2021/06/08 11:41:01;;;;;;;22.63;20.63;;;27.20;45.10;;;;;;5020774;28;20436;-78
2021/06/08 11:44:02;;;;;;;21.67;18.43;;;26.10;48.40;;;;;;5020280;28;20443;-80
2021/06/08 11:46:35;;;;;;;19.93;18.13;;;25.90;50.20;;;;;;4959249;29;20421;-79
2021/06/08 11:49:11;;;;;;;21.50;19.30;;;26.20;49.40;;;;;;4961317;29;20440;-80
2021/06/08 11:51:42;;;;;;;22.27;20.23;;;27.00;45.80;;;;;;4962460;29;20443;-79
2021/06/08 11:54:11;;;;;;;21.60;19.70;;;27.10;45.00;;;;;;4960812;28;20449;-80
2021/06/08 11:57:00;;;;;;;23.40;21.30;;;27.20;45.40;;;;;;4962248;29;20454;-78
2021/06/08 11:59:30;;;;;;;24.13;21.93;;;26.40;46.60;;;;;;4967832;29;20461;-79
2021/06/08 12:01:58;;;;;;;24.17;21.80;;;26.10;47.10;;;;;;4972660;29;20436;-79
2021/06/08 12:04:26;;;;;;;26.23;22.80;;;26.00;47.10;;;;;;4963238;28;20496;-79
2021/06/08 12:07:04;;;;;;;22.53;20.50;;;26.00;47.10;;;;;;4957861;29;20459;-78
2021/06/08 12:09:33;;;;;;;23.83;21.57;;;25.90;47.80;;;;;;4956246;29;20492;-78
2021/06/08 12:12:07;;;;;;;23.80;21.60;;;26.10;48.20;;;;;;4957487;28;20447;-78
2021/06/08 12:14:34;;;;;;;25.10;22.53;;;25.90;48.40;;;;;;4956216;28;20543;-79
2021/06/08 12:17:01;;;;;;;23.00;20.90;;;25.80;48.40;;;;;;4979339;28;20439;-79
2021/06/08 12:19:30;;;;;;;24.30;22.00;;;25.90;48.30;;;;;;5018709;28;20490;-78
2021/06/08 12:22:01;;;;;;;25.93;23.20;;;26.00;48.60;;;;;;5025648;28;20448;-79
2021/06/08 12:24:27;;;;;;;22.87;20.80;;;26.00;46.90;;;;;;5016595;28;20643;-78
2021/06/08 12:26:58;;;;;;;23.13;21.20;;;25.50;48.70;;;;;;5016717;28;20823;-78
2021/06/08 12:29:26;;;;;;;22.10;20.07;;;25.30;50.10;;;;;;5016970;28;20528;-79
2021/06/08 12:31:55;;;;;;;22.60;20.60;;;26.30;47.90;;;;;;5035098;28;20465;-79
2021/06/08 12:34:24;;;;;;;24.50;22.27;;;26.90;44.80;;;;;;5035455;28;20469;-80
2021/06/08 12:36:52;;;;;;;25.03;22.47;;;26.80;44.70;;;;;;5033186;28;20433;-78
2021/06/08 12:39:22;;;;;;;24.70;22.47;;;26.50;44.50;;;;;;5023566;28;20451;-79
2021/06/08 12:41:49;;;;;;;24.70;22.40;;;26.40;45.20;;;;;;5020064;28;20508;-79